Terminal Aerodrome Forecast
Issued by NWS New Orleans/Baton Rouge, LA

Home | Current Version | Previous Version | Text Only | Print | Product List | Glossary On
Versions: 1 2 3 4 5 6 7 8 9 10 11 12 13 14
000
FTUS44 KLIX 211127
TAFBTR
TAF
KBTR 211127Z 2112/2212 12005KT P6SM SCT015
     FM211500 15010KT P6SM BKN050
     FM212000 15010KT P6SM BKN030
     FM220500 14009KT 5SM BR OVC008
     FM220900 15009KT 4SM -RA OVC008=

USA.gov is the U.S. government's official web portal to all federal, state and local government web resources and services.